47 minutes ago
Runway Headwind Crosswind Length
4/22 1 kt 11,841 ft
METAR DNAA 202200Z 33002KT 9999 TS FEW010 FEW019CB 26/25 Q1015 NOSIG

METAR definition | Embed

METAR Abuja Airport

Abuja Airport is a large airport in Abuja, Nigeria. The airport has one runway: 4/22 (11,841 ft)

This report was made for Abuja Airport on June 20, 2021 11:00 pm, local time.

Airport observations

The wind is from direction northnorthwest (330°) with a speed of 2 kt.

Visibility is 6¼ mi or more.

There are few clouds at an altitude of 1,000 ft and few clouds , cumulonimbus at an altitude of 1,900 ft. No ceiling has been observed.

Current weather is thunderstorms . The temperature and wind chill are 79 °F. The dew point is 77 °F, the relative humidity is 94%. The air pressure at sea level is 29.97 inHg (QNH).

Daylight period

Today the sun rises at 6:13 am and sets at 6:52 pm. This applies to Abuja Airport, the universal daylight period may be different. The difference between the local time and UTC is +1 hour. Daylight saving time is currently in progress.

Historical data

Donate

Will you help us to keep Metar-Taf.com running?
Your contribution helps further development of the site and to pay for the expenses.

No more ads

Are you donating $ 5 or more? Then we'll never show you ads again, as a token of our eternal gratitude!
Log in before you donate

Do you want the flying weather of Abuja Airport on your website? Read more   Free!